createdAt,value
2022-10-18T00:01:05.378Z,30.08
2022-10-18T00:03:33.602Z,29.02
2022-10-18T00:06:01.938Z,30.08
2022-10-18T00:08:30.033Z,29.87
2022-10-18T00:10:57.816Z,30.01
2022-10-18T00:13:27.105Z,30.34
2022-10-18T00:16:00.844Z,30.40
2022-10-18T00:18:30.503Z,29.92
2022-10-18T00:21:00.148Z,30.19
2022-10-18T00:23:29.269Z,29.96
2022-10-18T00:26:02.035Z,29.54
2022-10-18T00:28:30.145Z,30.72
2022-10-18T00:30:58.000Z,29.79
2022-10-18T00:33:25.885Z,30.08
2022-10-18T00:35:55.217Z,30.23
2022-10-18T00:38:23.137Z,29.31
2022-10-18T00:40:50.849Z,30.26
2022-10-18T00:43:19.062Z,29.92
2022-10-18T00:45:46.770Z,30.36
2022-10-18T00:48:17.874Z,30.26
2022-10-18T00:50:49.656Z,30.33
2022-10-18T00:53:21.388Z,30.45
2022-10-18T00:55:50.047Z,30.04
2022-10-18T00:58:20.150Z,28.12
2022-10-18T01:00:48.545Z,29.31
2022-10-18T01:03:16.252Z,28.49
2022-10-18T01:05:46.770Z,26.65
2022-10-18T01:08:39.075Z,29.21
2022-10-18T01:11:18.237Z,28.79
2022-10-18T01:13:57.243Z,29.89
2022-10-18T01:16:30.964Z,30.31
2022-10-18T01:19:03.515Z,29.37
2022-10-18T01:21:45.357Z,30.82
2022-10-18T01:24:45.895Z,29.73
2022-10-18T01:27:31.099Z,28.32
2022-10-18T01:30:29.777Z,30.01
2022-10-18T01:33:04.520Z,29.90
2022-10-18T01:35:38.264Z,30.81
2022-10-18T01:38:09.854Z,29.84
2022-10-18T01:40:41.570Z,30.06
2022-10-18T01:43:11.058Z,28.67
2022-10-18T01:45:38.954Z,30.71
2022-10-18T01:48:10.934Z,30.16
2022-10-18T01:50:38.974Z,29.15
2022-10-18T01:53:06.800Z,29.61
2022-10-18T01:55:42.438Z,30.14
2022-10-18T01:58:21.127Z,29.57
2022-10-18T02:00:56.146Z,29.51
2022-10-18T02:03:27.944Z,30.09
2022-10-18T02:06:06.163Z,29.06
2022-10-18T02:08:38.975Z,27.89
2022-10-18T02:11:09.813Z,29.97
2022-10-18T02:13:41.634Z,30.60
2022-10-18T02:16:22.083Z,29.58
2022-10-18T02:18:57.255Z,30.70
2022-10-18T02:21:27.796Z,29.31
2022-10-18T02:23:58.998Z,29.54
2022-10-18T02:26:27.164Z,29.42
2022-10-18T02:28:55.365Z,28.15
2022-10-18T02:31:28.913Z,27.78
2022-10-18T02:34:01.668Z,28.94
2022-10-18T02:36:34.213Z,29.39
2022-10-18T02:39:06.308Z,29.04
2022-10-18T02:41:37.191Z,28.45
2022-10-18T02:44:05.403Z,29.79
2022-10-18T02:46:34.868Z,29.56
2022-10-18T02:49:04.314Z,28.90
2022-10-18T02:51:32.414Z,28.74
2022-10-18T02:54:00.262Z,27.78
2022-10-18T02:56:28.304Z,30.13
2022-10-18T02:58:56.074Z,29.92
2022-10-18T03:01:24.065Z,29.25
2022-10-18T03:03:52.014Z,28.18
2022-10-18T03:06:21.497Z,27.46
2022-10-18T03:08:49.407Z,27.92
2022-10-18T03:11:17.287Z,27.95
2022-10-18T03:13:51.236Z,28.57
2022-10-18T03:16:19.586Z,28.42
2022-10-18T03:18:47.503Z,29.74
2022-10-18T03:21:15.538Z,29.63
2022-10-18T03:23:47.869Z,28.73
2022-10-18T03:26:15.920Z,29.91
2022-10-18T03:28:43.734Z,28.16
2022-10-18T03:31:11.601Z,29.50
2022-10-18T03:33:42.279Z,29.69
2022-10-18T03:36:10.214Z,30.21
2022-10-18T03:38:38.216Z,29.78
2022-10-18T03:41:07.726Z,28.85
2022-10-18T03:43:35.498Z,28.43
2022-10-18T03:46:03.736Z,28.45
2022-10-18T03:48:34.406Z,28.90
2022-10-18T03:51:02.469Z,29.99
2022-10-18T03:53:30.233Z,29.70
2022-10-18T03:55:58.295Z,30.24
2022-10-18T03:58:27.573Z,29.59
2022-10-18T04:00:56.414Z,30.01
2022-10-18T04:03:24.648Z,29.35
2022-10-18T04:05:52.564Z,30.01
2022-10-18T04:08:20.469Z,28.95
2022-10-18T04:10:48.563Z,30.42
2022-10-18T04:13:16.329Z,29.84
2022-10-18T04:15:45.816Z,29.39
2022-10-18T04:18:13.680Z,30.05
2022-10-18T04:20:41.494Z,30.35
2022-10-18T04:23:09.263Z,28.98
2022-10-18T04:25:37.446Z,30.22
2022-10-18T04:28:07.489Z,29.32
2022-10-18T04:30:35.383Z,28.78
2022-10-18T04:33:04.887Z,30.40
2022-10-18T04:35:32.301Z,27.84
2022-10-18T04:38:00.074Z,28.90
2022-10-18T04:40:28.043Z,29.01
2022-10-18T04:42:56.753Z,28.72
2022-10-18T04:45:24.635Z,27.15
2022-10-18T04:47:52.623Z,28.76
2022-10-18T04:50:22.400Z,28.69
2022-10-18T04:52:52.957Z,27.92
2022-10-18T04:55:34.124Z,28.23
2022-10-18T04:59:03.463Z,28.97
2022-10-18T05:02:14.314Z,28.37
2022-10-18T05:06:00.950Z,28.12
2022-10-18T05:08:59.318Z,28.09
2022-10-18T05:12:15.794Z,28.95
2022-10-18T05:18:17.964Z,29.04
2022-10-18T05:20:53.289Z,29.98
2022-10-18T05:26:55.599Z,28.83
2022-10-18T05:29:23.729Z,30.59
2022-10-18T05:32:14.848Z,30.85
2022-10-18T05:34:54.870Z,29.69
2022-10-18T05:37:35.890Z,30.25
2022-10-18T05:40:22.315Z,30.53
2022-10-18T05:42:55.251Z,28.76
2022-10-18T05:49:21.985Z,28.71
2022-10-18T05:51:49.946Z,27.93
2022-10-18T05:54:19.221Z,28.30
2022-10-18T05:56:49.364Z,28.28
2022-10-18T05:59:17.554Z,29.27
2022-10-18T06:01:45.359Z,28.68
2022-10-18T06:04:13.372Z,27.70
2022-10-18T06:06:41.187Z,28.01
2022-10-18T06:09:09.667Z,28.01
2022-10-18T06:11:39.153Z,27.85
2022-10-18T06:14:08.591Z,27.79
2022-10-18T06:16:39.792Z,27.35
2022-10-18T06:19:08.314Z,27.14
2022-10-18T06:21:36.363Z,28.13
2022-10-18T06:24:06.143Z,27.79
2022-10-18T06:26:34.620Z,27.67
2022-10-18T06:29:06.162Z,28.18
2022-10-18T06:31:34.229Z,28.51
2022-10-18T06:34:03.089Z,28.75
2022-10-18T06:36:31.345Z,27.94
2022-10-18T06:39:01.470Z,28.64
2022-10-18T06:41:29.681Z,29.40
2022-10-18T06:44:05.160Z,29.83
2022-10-18T06:46:33.079Z,30.11
2022-10-18T06:49:01.502Z,29.95
2022-10-18T06:51:29.673Z,30.08
2022-10-18T06:54:16.873Z,29.43
2022-10-18T06:56:45.695Z,28.90
2022-10-18T06:59:15.118Z,28.58
2022-10-18T07:01:43.049Z,29.48
2022-10-18T07:04:10.937Z,28.56
2022-10-18T07:06:38.900Z,28.50
2022-10-18T07:09:06.755Z,27.66
2022-10-18T07:11:34.757Z,28.17
2022-10-18T07:14:03.448Z,27.96
2022-10-18T07:16:34.365Z,28.30
2022-10-18T07:19:02.090Z,28.44
2022-10-18T07:21:29.880Z,28.04
2022-10-18T07:23:58.197Z,28.54
2022-10-18T07:26:27.713Z,28.51
2022-10-18T07:28:58.157Z,28.41
2022-10-18T07:31:26.357Z,27.75
2022-10-18T07:33:55.934Z,28.85
2022-10-18T07:36:23.520Z,27.80
2022-10-18T07:38:52.370Z,28.05
2022-10-18T07:41:23.201Z,27.75
2022-10-18T07:43:52.510Z,27.79
2022-10-18T07:46:21.118Z,28.05
2022-10-18T07:48:51.491Z,27.64
2022-10-18T07:51:21.338Z,28.08
2022-10-18T07:53:48.621Z,29.04
2022-10-18T07:56:19.038Z,27.83
2022-10-18T07:58:49.218Z,27.51
2022-10-18T08:01:17.596Z,27.84
2022-10-18T08:03:45.664Z,27.67
2022-10-18T08:06:16.387Z,27.59
2022-10-18T08:08:46.936Z,27.49
2022-10-18T08:11:16.373Z,27.65
2022-10-18T08:13:44.379Z,27.34
2022-10-18T08:16:14.499Z,27.52
2022-10-18T08:18:42.489Z,27.72
2022-10-18T08:21:13.780Z,27.78
2022-10-18T08:23:42.857Z,27.64
2022-10-18T08:26:14.787Z,27.75
2022-10-18T08:28:49.263Z,28.03
2022-10-18T08:31:22.088Z,27.55
2022-10-18T08:33:49.982Z,26.79
2022-10-18T08:36:18.327Z,27.24
2022-10-18T08:38:46.309Z,27.25
2022-10-18T08:41:34.212Z,28.17
2022-10-18T08:44:10.574Z,28.17
2022-10-18T08:46:42.818Z,28.16
2022-10-18T08:49:19.051Z,27.61
2022-10-18T08:51:49.649Z,27.42
2022-10-18T08:54:24.626Z,26.83
2022-10-18T08:56:59.150Z,27.76
2022-10-18T08:59:32.964Z,27.33
2022-10-18T09:02:13.334Z,27.43
2022-10-18T09:04:55.522Z,27.57
2022-10-18T09:08:03.171Z,28.50
2022-10-18T09:10:43.903Z,28.78
2022-10-18T09:13:40.328Z,27.19
2022-10-18T09:17:15.839Z,27.30
2022-10-18T09:20:27.162Z,27.18
2022-10-18T09:23:43.532Z,27.14
2022-10-18T09:26:22.846Z,28.27
2022-10-18T09:32:58.768Z,28.37
2022-10-18T09:35:43.762Z,28.21
2022-10-18T09:38:33.054Z,27.66
2022-10-18T09:41:12.881Z,28.17
2022-10-18T09:43:57.348Z,28.76
2022-10-18T09:47:00.386Z,28.87
2022-10-18T09:49:51.785Z,28.54
2022-10-18T09:52:32.356Z,28.65
2022-10-18T09:55:31.234Z,28.98
2022-10-18T10:05:53.373Z,28.55
2022-10-18T10:08:47.209Z,28.84
2022-10-18T10:14:30.978Z,29.07
2022-10-18T10:17:07.590Z,29.33
2022-10-18T10:23:05.703Z,29.48
2022-10-18T10:33:03.434Z,29.25
2022-10-18T10:36:22.976Z,28.93
2022-10-18T10:39:24.880Z,29.83
2022-10-18T10:42:07.992Z,29.60
2022-10-18T10:45:20.351Z,29.84
2022-10-18T10:47:55.460Z,29.30
2022-10-18T10:50:49.920Z,29.38
2022-10-18T10:53:35.410Z,29.56
2022-10-18T10:56:36.337Z,29.54
2022-10-18T10:59:31.104Z,29.39
2022-10-18T11:02:29.941Z,29.13
2022-10-18T11:05:24.038Z,29.81
2022-10-18T11:08:30.653Z,29.36
2022-10-18T11:11:38.307Z,29.00
2022-10-18T11:14:26.877Z,28.62
2022-10-18T11:20:25.107Z,27.99
2022-10-18T11:23:11.829Z,28.39
2022-10-18T11:26:20.488Z,28.34
2022-10-18T11:29:21.679Z,28.63
2022-10-18T11:32:38.422Z,29.21
2022-10-18T11:35:42.154Z,27.55
2022-10-18T11:38:42.569Z,28.27
2022-10-18T11:41:38.047Z,28.83
2022-10-18T11:44:23.716Z,28.69
2022-10-18T11:47:15.506Z,29.20
2022-10-18T11:50:25.418Z,28.13
2022-10-18T11:53:22.934Z,28.45
2022-10-18T11:56:09.083Z,28.31
2022-10-18T11:59:28.644Z,29.02
2022-10-18T12:05:30.149Z,29.21
2022-10-18T12:08:48.078Z,28.67
2022-10-18T12:12:06.529Z,29.20
2022-10-18T12:14:53.058Z,29.35
2022-10-18T12:17:51.379Z,29.09
2022-10-18T12:20:28.060Z,28.69
2022-10-18T12:23:23.394Z,29.21
2022-10-18T12:26:27.811Z,28.65
2022-10-18T12:29:07.859Z,28.63
2022-10-18T12:31:46.381Z,27.73
2022-10-18T12:34:36.678Z,27.94
2022-10-18T12:37:44.845Z,27.79
2022-10-18T12:40:57.429Z,28.93
2022-10-18T12:44:12.250Z,27.78
2022-10-18T12:46:49.462Z,27.82
2022-10-18T12:53:01.228Z,28.98
2022-10-18T12:58:44.370Z,28.59
2022-10-18T13:01:23.842Z,27.38
2022-10-18T13:03:56.878Z,27.16
2022-10-18T13:10:51.640Z,27.96
2022-10-18T13:14:00.287Z,27.11
2022-10-18T13:16:43.322Z,27.76
2022-10-18T13:19:22.062Z,27.22
2022-10-18T13:22:31.535Z,28.27
2022-10-18T13:25:21.444Z,28.55
2022-10-18T13:28:02.994Z,28.63
2022-10-18T13:31:00.932Z,29.37
2022-10-18T13:33:33.872Z,28.17
2022-10-18T13:36:03.732Z,28.49
2022-10-18T13:38:45.816Z,27.96
2022-10-18T13:41:16.941Z,28.00
2022-10-18T13:44:47.075Z,27.99
2022-10-18T13:47:55.069Z,28.75
2022-10-18T13:50:42.480Z,28.60
2022-10-18T13:57:15.890Z,27.69
2022-10-18T14:00:30.345Z,27.79
2022-10-18T14:03:58.580Z,27.36
2022-10-18T14:06:47.125Z,28.43
2022-10-18T14:09:48.637Z,27.56
2022-10-18T14:12:44.050Z,27.13
2022-10-18T14:15:18.392Z,28.27
2022-10-18T14:17:57.340Z,28.44
2022-10-18T14:21:12.915Z,26.95
2022-10-18T14:23:43.963Z,26.94
2022-10-18T14:26:20.046Z,27.07
2022-10-18T14:29:16.400Z,26.99
2022-10-18T14:32:00.392Z,27.02
2022-10-18T14:34:43.820Z,27.16
2022-10-18T14:37:41.017Z,27.05
2022-10-18T14:40:30.080Z,27.36
2022-10-18T14:43:21.021Z,27.11
2022-10-18T14:46:08.645Z,26.94
2022-10-18T14:48:42.706Z,27.48
2022-10-18T14:51:12.031Z,27.14
2022-10-18T14:53:48.477Z,26.69
2022-10-18T14:56:39.347Z,26.74
2022-10-18T14:59:18.989Z,28.27
2022-10-18T15:01:56.309Z,27.14
2022-10-18T15:04:28.468Z,28.34
2022-10-18T15:06:57.020Z,28.39
2022-10-18T15:11:56.617Z,27.75
2022-10-18T15:14:26.613Z,27.21
2022-10-18T15:17:00.091Z,29.53
2022-10-18T15:19:30.920Z,29.15
2022-10-18T15:25:07.109Z,28.71
2022-10-18T15:27:37.966Z,29.20
2022-10-18T15:30:08.000Z,28.83
2022-10-18T15:32:35.677Z,29.20
2022-10-18T15:35:09.245Z,29.22
2022-10-18T15:37:40.238Z,28.66
2022-10-18T15:40:29.061Z,29.02
2022-10-18T15:42:58.988Z,29.20
2022-10-18T15:48:25.090Z,29.27
2022-10-18T15:50:54.099Z,28.90
2022-10-18T15:53:51.868Z,28.67
2022-10-18T15:56:32.319Z,28.50
2022-10-18T15:59:01.266Z,29.10
2022-10-18T16:01:35.343Z,29.26
2022-10-18T16:04:08.007Z,28.66
2022-10-18T16:06:35.384Z,28.81
2022-10-18T16:09:02.936Z,28.38
2022-10-18T16:11:31.872Z,29.42
2022-10-18T16:14:00.667Z,29.53
2022-10-18T16:16:29.612Z,29.09
2022-10-18T16:18:57.919Z,29.18
2022-10-18T16:21:27.704Z,29.00
2022-10-18T16:23:55.485Z,29.49
2022-10-18T16:26:23.373Z,28.25
2022-10-18T16:28:53.456Z,29.30
2022-10-18T16:31:22.480Z,29.03
2022-10-18T16:33:50.997Z,29.47
2022-10-18T16:36:19.900Z,29.17
2022-10-18T16:38:48.317Z,28.39
2022-10-18T16:41:16.496Z,29.17
2022-10-18T16:43:45.527Z,29.37
2022-10-18T16:46:17.201Z,29.37
2022-10-18T16:48:45.185Z,29.41
2022-10-18T16:51:12.836Z,29.14
2022-10-18T16:53:40.310Z,29.47
2022-10-18T16:56:13.659Z,29.60
2022-10-18T16:58:41.394Z,29.47
2022-10-18T17:01:11.192Z,28.81
2022-10-18T17:03:40.382Z,29.70
2022-10-18T17:06:14.572Z,28.73
2022-10-18T17:08:41.991Z,28.91
2022-10-18T17:11:10.486Z,29.09
2022-10-18T17:13:38.504Z,29.23
2022-10-18T17:16:06.871Z,29.49
2022-10-18T17:18:34.303Z,29.65
2022-10-18T17:21:03.375Z,30.10
2022-10-18T17:23:31.221Z,27.64
2022-10-18T17:26:08.545Z,28.82
2022-10-18T17:28:46.215Z,29.55
2022-10-18T17:31:15.377Z,29.26
2022-10-18T17:33:42.906Z,29.31
2022-10-18T17:36:12.624Z,29.80
2022-10-18T17:38:40.168Z,29.23
2022-10-18T17:41:08.392Z,29.60
2022-10-18T17:43:37.501Z,28.64
2022-10-18T17:46:05.834Z,29.29
2022-10-18T17:48:33.482Z,29.08
2022-10-18T17:51:01.039Z,28.66
2022-10-18T17:53:29.871Z,29.28
2022-10-18T17:56:02.606Z,29.81
2022-10-18T17:58:30.677Z,28.71
2022-10-18T18:00:58.261Z,29.61
2022-10-18T18:03:27.239Z,29.76
2022-10-18T18:05:54.861Z,29.59
2022-10-18T18:08:22.505Z,29.26
2022-10-18T18:10:54.578Z,29.87
2022-10-18T18:13:22.320Z,28.80
2022-10-18T18:15:49.881Z,29.61
2022-10-18T18:18:17.607Z,29.47
2022-10-18T18:20:53.317Z,29.56
2022-10-18T18:23:22.539Z,29.01
2022-10-18T18:25:57.093Z,28.75
2022-10-18T18:28:24.782Z,28.95
2022-10-18T18:30:52.189Z,29.06
2022-10-18T18:33:19.823Z,29.38
2022-10-18T18:35:55.008Z,29.03
2022-10-18T18:38:22.451Z,29.77
2022-10-18T18:40:49.943Z,29.93
2022-10-18T18:43:26.107Z,29.59
2022-10-18T18:45:53.572Z,29.69
2022-10-18T18:48:21.061Z,29.91
2022-10-18T18:50:49.001Z,29.61
2022-10-18T18:53:16.553Z,29.34
2022-10-18T18:55:44.049Z,29.84
2022-10-18T18:58:12.281Z,29.80
2022-10-18T19:00:44.281Z,29.93
2022-10-18T19:03:12.599Z,29.65
2022-10-18T19:05:40.108Z,29.73
2022-10-18T19:08:07.475Z,29.99
2022-10-18T19:10:35.009Z,29.99
2022-10-18T19:13:02.406Z,30.09
2022-10-18T19:15:29.813Z,29.83
2022-10-18T19:17:58.869Z,28.79
2022-10-18T19:20:26.336Z,29.86
2022-10-18T19:22:53.830Z,30.10
2022-10-18T19:25:23.441Z,30.04
2022-10-18T19:27:53.626Z,29.88
2022-10-18T19:30:21.207Z,29.80
2022-10-18T19:32:48.626Z,30.19
2022-10-18T19:35:17.487Z,30.38
2022-10-18T19:37:44.911Z,30.23
2022-10-18T19:40:13.386Z,30.57
2022-10-18T19:42:40.777Z,29.73
2022-10-18T19:45:09.064Z,29.73
2022-10-18T19:47:36.584Z,30.08
2022-10-18T19:50:04.438Z,29.97
2022-10-18T19:52:33.314Z,30.24
2022-10-18T19:55:01.210Z,30.44
2022-10-18T19:57:28.589Z,30.40
2022-10-18T19:59:56.745Z,29.68
2022-10-18T20:02:24.408Z,30.54
2022-10-18T20:04:51.847Z,30.02
2022-10-18T20:07:19.196Z,30.33
2022-10-18T20:09:48.002Z,30.15
2022-10-18T20:12:15.375Z,29.79
2022-10-18T20:14:42.756Z,30.76
2022-10-18T20:17:10.090Z,29.67
2022-10-18T20:19:37.418Z,30.58
2022-10-18T20:22:04.766Z,30.26
2022-10-18T20:24:32.116Z,30.58
2022-10-18T20:27:00.937Z,30.10
2022-10-18T20:29:28.365Z,30.74
2022-10-18T20:31:55.743Z,30.81
2022-10-18T20:34:23.653Z,30.05
2022-10-18T20:36:50.993Z,30.47
2022-10-18T20:39:18.337Z,30.35
2022-10-18T20:41:45.667Z,30.37
2022-10-18T20:44:16.650Z,30.30
2022-10-18T20:46:44.501Z,30.52
2022-10-18T20:49:15.007Z,30.74
2022-10-18T20:51:42.823Z,30.15
2022-10-18T20:54:10.908Z,30.69
2022-10-18T20:56:39.028Z,30.39
2022-10-18T20:59:07.378Z,30.52
2022-10-18T21:01:37.049Z,30.56
2022-10-18T21:04:05.257Z,30.71
2022-10-18T21:06:33.796Z,30.57
2022-10-18T21:09:03.646Z,30.22
2022-10-18T21:11:34.352Z,30.96
2022-10-18T21:14:02.645Z,30.88
2022-10-18T21:16:30.904Z,30.75
2022-10-18T21:19:03.644Z,30.97
2022-10-18T21:21:31.118Z,30.75
2022-10-18T21:24:01.195Z,31.22
2022-10-18T21:26:31.424Z,30.66
2022-10-18T21:28:59.272Z,30.64
2022-10-18T21:31:29.266Z,30.91
2022-10-18T21:33:58.705Z,30.58
2022-10-18T21:36:30.621Z,30.32
2022-10-18T21:38:58.669Z,30.15
2022-10-18T21:41:26.252Z,30.83
2022-10-18T21:43:55.149Z,30.96
2022-10-18T21:46:24.415Z,30.64
2022-10-18T21:48:52.970Z,30.47
2022-10-18T21:51:22.683Z,30.41
2022-10-18T21:53:51.876Z,30.04
2022-10-18T21:56:21.318Z,30.62
2022-10-18T21:58:49.833Z,30.84
2022-10-18T22:01:19.647Z,30.78
2022-10-18T22:03:49.131Z,30.62
2022-10-18T22:06:17.475Z,30.52
2022-10-18T22:08:48.387Z,30.67
2022-10-18T22:11:18.268Z,31.22
2022-10-18T22:13:46.071Z,30.76
2022-10-18T22:16:15.113Z,31.02
2022-10-18T22:18:43.439Z,30.97
2022-10-18T22:21:13.187Z,30.82
2022-10-18T22:23:42.914Z,30.64
2022-10-18T22:26:11.905Z,30.84
2022-10-18T22:28:42.011Z,30.11
2022-10-18T22:31:14.479Z,31.15
2022-10-18T22:33:41.835Z,30.95
2022-10-18T22:36:09.361Z,30.56
2022-10-18T22:38:37.096Z,30.56
2022-10-18T22:41:05.576Z,31.22
2022-10-18T22:43:32.989Z,29.85
2022-10-18T22:46:02.685Z,30.59
2022-10-18T22:48:29.945Z,30.52
2022-10-18T22:50:57.944Z,30.11
2022-10-18T22:53:25.680Z,30.90
2022-10-18T22:55:53.039Z,31.18
2022-10-18T22:58:21.036Z,31.29
2022-10-18T23:00:48.416Z,31.23
2022-10-18T23:03:18.985Z,29.47
2022-10-18T23:05:47.173Z,30.45
2022-10-18T23:08:14.609Z,31.37
2022-10-18T23:10:42.943Z,31.24
2022-10-18T23:13:10.653Z,31.20
2022-10-18T23:15:38.103Z,30.83
2022-10-18T23:18:05.902Z,30.86
2022-10-18T23:20:34.834Z,30.82
2022-10-18T23:23:02.182Z,30.89
2022-10-18T23:25:29.599Z,30.30
2022-10-18T23:27:57.662Z,31.05
2022-10-18T23:30:25.023Z,30.65
2022-10-18T23:32:52.416Z,30.84
2022-10-18T23:35:19.748Z,30.70
2022-10-18T23:37:48.585Z,31.34
2022-10-18T23:40:16.110Z,31.16
2022-10-18T23:42:43.503Z,31.04
2022-10-18T23:45:11.184Z,31.13
2022-10-18T23:47:38.559Z,29.78
2022-10-18T23:50:06.750Z,30.73
2022-10-18T23:52:34.130Z,30.93
2022-10-18T23:55:02.919Z,29.89
2022-10-18T23:57:30.428Z,31.18
2022-10-18T23:59:57.972Z,30.84
